createdAt,value
2018-11-21T00:01:40.429Z,5.43
2018-11-21T00:04:09.091Z,5.57
2018-11-21T00:06:37.776Z,5.57
2018-11-21T00:09:08.748Z,5.43
2018-11-21T00:11:37.383Z,5.36
2018-11-21T00:14:06.372Z,5.33
2018-11-21T00:16:35.241Z,5.28
2018-11-21T00:19:03.786Z,5.37
2018-11-21T00:21:32.370Z,5.31
2018-11-21T00:24:00.926Z,5.27
2018-11-21T00:26:29.532Z,5.24
2018-11-21T00:28:58.119Z,5.23
2018-11-21T00:31:26.701Z,5.49
2018-11-21T00:33:55.294Z,5.25
2018-11-21T00:36:23.933Z,5.15
2018-11-21T00:38:52.584Z,5.15
2018-11-21T00:41:21.201Z,5.33
2018-11-21T00:43:49.801Z,5.33
2018-11-21T00:46:18.404Z,5.05
2018-11-21T00:48:47.009Z,5.05
2018-11-21T00:51:15.606Z,5.05
2018-11-21T00:53:44.292Z,5.30
2018-11-21T00:56:12.874Z,5.03
2018-11-21T00:58:41.597Z,5.03
2018-11-21T01:01:13.141Z,4.98
2018-11-21T01:03:41.766Z,4.99
2018-11-21T01:06:10.372Z,5.12
2018-11-21T01:08:39.005Z,5.12
2018-11-21T01:11:07.634Z,5.02
2018-11-21T01:13:36.218Z,5.03
2018-11-21T01:16:05.318Z,5.06
2018-11-21T01:18:33.860Z,5.06
2018-11-21T01:21:02.497Z,5.37
2018-11-21T01:23:31.169Z,5.20
2018-11-21T01:25:59.825Z,5.18
2018-11-21T01:28:28.390Z,5.19
2018-11-21T01:30:56.965Z,5.45
2018-11-21T01:33:25.565Z,5.39
2018-11-21T01:35:54.131Z,5.28
2018-11-21T01:38:22.771Z,5.28
2018-11-21T01:40:51.391Z,5.40
2018-11-21T01:43:19.962Z,5.49
2018-11-21T01:45:48.571Z,5.75
2018-11-21T01:48:17.118Z,5.60
2018-11-21T01:50:45.684Z,5.60
2018-11-21T01:53:14.285Z,5.69
2018-11-21T01:55:42.836Z,5.69
2018-11-21T01:58:11.377Z,5.94
2018-11-21T02:00:39.980Z,5.80
2018-11-21T02:03:08.575Z,5.84
2018-11-21T02:05:37.118Z,5.89
2018-11-21T02:08:05.860Z,5.85
2018-11-21T02:10:34.420Z,6.22
2018-11-21T02:13:03.011Z,5.92
2018-11-21T02:15:31.585Z,5.82
2018-11-21T02:18:00.143Z,5.80
2018-11-21T02:20:28.726Z,5.82
2018-11-21T02:22:57.286Z,6.01
2018-11-21T02:25:25.841Z,5.85
2018-11-21T02:27:54.404Z,5.82
2018-11-21T02:30:22.973Z,5.82
2018-11-21T02:32:51.499Z,5.81
2018-11-21T02:35:20.027Z,5.91
2018-11-21T02:37:48.577Z,5.80
2018-11-21T02:40:17.142Z,5.80
2018-11-21T02:42:45.730Z,5.72
2018-11-21T02:45:14.336Z,5.72
2018-11-21T02:47:42.878Z,5.84
2018-11-21T02:50:11.503Z,5.64
2018-11-21T02:52:40.089Z,5.65
2018-11-21T02:55:08.690Z,5.75
2018-11-21T02:57:37.440Z,5.75
2018-11-21T03:00:11.130Z,5.68
2018-11-21T03:02:39.809Z,5.65
2018-11-21T03:05:08.369Z,5.53
2018-11-21T03:07:37.491Z,5.62
2018-11-21T03:10:06.841Z,5.85
2018-11-21T03:12:35.424Z,5.61
2018-11-21T03:15:04.045Z,5.53
2018-11-21T03:17:32.605Z,5.58
2018-11-21T03:20:01.177Z,5.65
2018-11-21T03:22:29.763Z,5.80
2018-11-21T03:24:58.295Z,5.64
2018-11-21T03:27:26.825Z,5.64
2018-11-21T03:29:55.423Z,5.64
2018-11-21T03:32:24.054Z,5.83
2018-11-21T03:34:52.780Z,5.74
2018-11-21T03:37:21.416Z,5.62
2018-11-21T03:39:50.034Z,4.67
2018-11-21T03:42:18.606Z,5.63
2018-11-21T03:44:47.208Z,5.88
2018-11-21T03:47:15.740Z,5.78
2018-11-21T03:49:44.335Z,5.77
2018-11-21T03:52:12.904Z,5.82
2018-11-21T03:54:41.499Z,5.91
2018-11-21T03:57:10.141Z,6.03
2018-11-21T03:59:38.726Z,5.99
2018-11-21T04:02:07.346Z,6.02
2018-11-21T04:04:35.975Z,6.14
2018-11-21T04:07:04.571Z,6.46
2018-11-21T04:09:33.172Z,6.48
2018-11-21T04:12:01.696Z,6.52
2018-11-21T04:14:30.301Z,6.52
2018-11-21T04:16:58.908Z,6.46
2018-11-21T04:19:27.464Z,6.66
2018-11-21T04:21:55.988Z,6.48
2018-11-21T04:24:24.536Z,6.36
2018-11-21T04:26:53.080Z,6.31
2018-11-21T04:29:21.660Z,6.26
2018-11-21T04:31:50.242Z,6.48
2018-11-21T04:34:18.842Z,6.30
2018-11-21T04:36:47.466Z,6.24
2018-11-21T04:39:16.117Z,6.17
2018-11-21T04:41:44.729Z,6.12
2018-11-21T04:44:13.380Z,6.37
2018-11-21T04:46:41.921Z,6.17
2018-11-21T04:49:10.492Z,6.10
2018-11-21T04:51:39.069Z,6.48
2018-11-21T04:54:08.121Z,6.72
2018-11-21T04:56:36.681Z,6.64
2018-11-21T04:59:05.729Z,6.64
2018-11-21T05:01:34.375Z,6.66
2018-11-21T05:04:02.979Z,6.56
2018-11-21T05:06:31.556Z,6.58
2018-11-21T05:09:00.160Z,6.50
2018-11-21T05:11:28.727Z,6.44
2018-11-21T05:13:57.532Z,6.39
2018-11-21T05:16:26.132Z,6.36
2018-11-21T05:18:54.687Z,6.34
2018-11-21T05:21:23.231Z,6.40
2018-11-21T05:23:51.846Z,6.39
2018-11-21T05:26:20.452Z,6.37
2018-11-21T05:28:49.053Z,6.32
2018-11-21T05:31:17.741Z,6.32
2018-11-21T05:33:46.288Z,6.28
2018-11-21T05:36:14.911Z,6.21
2018-11-21T05:38:43.499Z,6.20
2018-11-21T05:41:12.089Z,6.22
2018-11-21T05:43:40.660Z,6.17
2018-11-21T05:46:09.406Z,6.17
2018-11-21T05:48:37.933Z,6.18
2018-11-21T05:51:06.575Z,6.19
2018-11-21T05:53:36.506Z,6.17
2018-11-21T05:56:03.957Z,6.22
2018-11-21T05:58:32.546Z,6.24
2018-11-21T06:01:01.238Z,6.21
2018-11-21T06:03:29.866Z,6.23
2018-11-21T06:05:58.513Z,6.24
2018-11-21T06:08:27.102Z,6.28
2018-11-21T06:10:55.769Z,6.33
2018-11-21T06:13:24.388Z,6.34
2018-11-21T06:15:53.003Z,6.36
2018-11-21T06:18:21.621Z,6.39
2018-11-21T06:20:50.217Z,6.43
2018-11-21T06:23:18.833Z,6.46
2018-11-21T06:25:47.457Z,6.57
2018-11-21T06:28:16.025Z,6.53
2018-11-21T06:30:45.396Z,6.37
2018-11-21T06:33:13.519Z,6.23
2018-11-21T06:35:42.123Z,6.10
2018-11-21T06:38:10.692Z,6.12
2018-11-21T06:40:39.451Z,6.07
2018-11-21T06:43:07.873Z,6.05
2018-11-21T06:45:36.492Z,6.05
2018-11-21T06:48:05.215Z,6.07
2018-11-21T06:50:33.850Z,5.99
2018-11-21T06:53:02.393Z,6.04
2018-11-21T06:55:30.994Z,6.07
2018-11-21T06:57:59.556Z,6.06
2018-11-21T07:00:28.217Z,6.05
2018-11-21T07:02:56.767Z,6.03
2018-11-21T07:05:25.330Z,6.00
2018-11-21T07:07:53.911Z,6.03
2018-11-21T07:10:22.512Z,6.03
2018-11-21T07:12:51.100Z,6.02
2018-11-21T07:15:20.124Z,5.99
2018-11-21T07:17:48.674Z,6.04
2018-11-21T07:20:17.395Z,6.06
2018-11-21T07:22:45.963Z,6.08
2018-11-21T07:25:17.314Z,6.08
2018-11-21T07:27:46.054Z,6.07
2018-11-21T07:30:15.716Z,6.11
2018-11-21T07:32:44.310Z,6.10
2018-11-21T07:35:17.847Z,6.13
2018-11-21T07:37:42.369Z,6.09
2018-11-21T07:40:12.568Z,4.26
2018-11-21T07:42:41.150Z,6.07
2018-11-21T07:45:14.373Z,6.08
2018-11-21T07:47:43.690Z,6.06
2018-11-21T07:50:14.761Z,6.06
2018-11-21T07:52:43.548Z,6.09
2018-11-21T07:55:12.880Z,6.10
2018-11-21T07:57:48.842Z,6.08
2018-11-21T08:00:57.073Z,6.09
2018-11-21T08:03:27.427Z,5.96
2018-11-21T08:06:07.793Z,5.96
2018-11-21T08:08:53.353Z,6.02
2018-11-21T08:11:39.874Z,5.93
2018-11-21T08:14:36.220Z,5.98
2018-11-21T08:17:33.225Z,5.98
2018-11-21T08:20:19.882Z,5.95
2018-11-21T08:23:05.882Z,5.88
2018-11-21T08:25:56.490Z,5.88
2018-11-21T08:28:34.026Z,5.89
2018-11-21T08:31:03.157Z,5.90
2018-11-21T08:33:33.987Z,5.88
2018-11-21T08:36:00.886Z,5.85
2018-11-21T08:38:29.510Z,5.85
2018-11-21T08:40:58.053Z,5.81
2018-11-21T08:43:26.646Z,5.82
2018-11-21T08:45:55.220Z,5.81
2018-11-21T08:48:24.195Z,5.81
2018-11-21T08:50:52.788Z,5.74
2018-11-21T08:53:21.358Z,5.80
2018-11-21T08:55:49.902Z,5.69
2018-11-21T08:58:18.471Z,5.69
2018-11-21T09:00:47.631Z,5.75
2018-11-21T09:03:16.204Z,5.79
2018-11-21T09:05:44.769Z,5.78
2018-11-21T09:08:13.309Z,5.79
2018-11-21T09:10:42.022Z,5.78
2018-11-21T09:13:11.132Z,5.82
2018-11-21T09:15:39.688Z,5.87
2018-11-21T09:18:08.245Z,5.93
2018-11-21T09:20:36.803Z,5.85
2018-11-21T09:23:05.515Z,5.65
2018-11-21T09:25:34.151Z,5.39
2018-11-21T09:28:02.712Z,5.09
2018-11-21T09:30:31.270Z,5.01
2018-11-21T09:33:00.279Z,4.97
2018-11-21T09:35:28.927Z,4.93
2018-11-21T09:37:57.603Z,4.93
2018-11-21T09:40:26.208Z,4.89
2018-11-21T09:42:56.008Z,4.89
2018-11-21T09:45:25.218Z,4.63
2018-11-21T09:47:53.847Z,4.74
2018-11-21T09:50:24.217Z,4.79
2018-11-21T09:52:55.434Z,4.76
2018-11-21T09:55:24.158Z,4.75
2018-11-21T09:57:52.908Z,4.75
2018-11-21T10:01:50.256Z,4.64
2018-11-21T10:04:20.329Z,4.57
2018-11-21T10:06:50.486Z,4.56
2018-11-21T10:09:23.025Z,4.60
2018-11-21T10:11:53.108Z,4.56
2018-11-21T10:14:23.153Z,4.56
2018-11-21T10:16:53.421Z,4.57
2018-11-21T10:19:23.437Z,4.57
2018-11-21T10:21:53.563Z,4.50
2018-11-21T10:24:23.724Z,4.46
2018-11-21T10:26:53.710Z,4.46
2018-11-21T10:29:24.030Z,4.55
2018-11-21T10:31:54.175Z,4.47
2018-11-21T10:34:24.332Z,4.56
2018-11-21T10:36:54.546Z,4.51
2018-11-21T10:39:24.671Z,4.47
2018-11-21T10:41:54.811Z,4.46
2018-11-21T10:44:25.061Z,4.46
2018-11-21T10:46:55.251Z,4.43
2018-11-21T10:49:26.560Z,4.64
2018-11-21T10:51:56.748Z,4.69
2018-11-21T10:54:26.999Z,4.74
2018-11-21T10:56:58.015Z,4.74
2018-11-21T10:59:28.059Z,4.76
2018-11-21T11:02:15.383Z,4.71
2018-11-21T11:04:54.677Z,4.78
2018-11-21T11:07:43.620Z,4.80
2018-11-21T11:10:26.075Z,4.77
2018-11-21T11:13:35.256Z,4.88
2018-11-21T11:16:21.370Z,4.79
2018-11-21T11:19:20.574Z,4.69
2018-11-21T11:22:09.620Z,4.76
2018-11-21T11:25:10.417Z,4.80
2018-11-21T11:27:58.265Z,4.85
2018-11-21T11:30:45.397Z,4.91
2018-11-21T11:33:32.453Z,4.94
2018-11-21T11:36:21.125Z,4.84
2018-11-21T11:39:08.434Z,4.91
2018-11-21T11:41:55.698Z,4.86
2018-11-21T11:44:59.410Z,4.98
2018-11-21T11:47:58.059Z,5.00
2018-11-21T11:50:45.128Z,4.96
2018-11-21T11:53:46.205Z,4.95
2018-11-21T11:56:37.979Z,4.98
2018-11-21T11:59:25.538Z,5.05
2018-11-21T12:02:13.437Z,5.05
2018-11-21T12:04:59.945Z,5.08
2018-11-21T12:07:48.467Z,5.02
2018-11-21T12:10:46.033Z,4.71
2018-11-21T12:13:33.235Z,4.71
2018-11-21T12:16:31.006Z,4.77
2018-11-21T12:19:18.115Z,4.90
2018-11-21T12:22:06.739Z,4.90
2018-11-21T12:25:09.850Z,4.74
2018-11-21T12:27:51.668Z,4.74
2018-11-21T12:30:42.124Z,4.65
2018-11-21T12:33:43.667Z,4.66
2018-11-21T12:36:44.200Z,4.57
2018-11-21T12:39:37.242Z,4.57
2018-11-21T12:42:28.475Z,4.47
2018-11-21T12:48:21.384Z,4.40
2018-11-21T12:51:11.141Z,4.44
2018-11-21T12:54:02.113Z,4.36
2018-11-21T12:56:50.464Z,4.28
2018-11-21T12:59:51.491Z,4.37
2018-11-21T13:02:46.142Z,4.34
2018-11-21T13:05:40.617Z,4.33
2018-11-21T13:08:27.748Z,4.22
2018-11-21T13:11:16.622Z,4.18
2018-11-21T13:13:59.278Z,4.25
2018-11-21T13:16:54.230Z,4.40
2018-11-21T13:19:52.023Z,4.29
2018-11-21T13:22:41.932Z,4.24
2018-11-21T13:25:29.330Z,4.22
2018-11-21T13:28:33.192Z,4.12
2018-11-21T13:31:24.828Z,4.16
2018-11-21T13:34:30.723Z,4.15
2018-11-21T13:37:31.120Z,4.10
2018-11-21T13:40:21.845Z,4.09
2018-11-21T13:43:19.897Z,4.24
2018-11-21T13:46:17.837Z,4.27
2018-11-21T13:49:12.911Z,4.31
2018-11-21T13:52:00.018Z,4.16
2018-11-21T13:54:52.071Z,4.12
2018-11-21T13:57:22.303Z,4.17
2018-11-21T13:59:52.258Z,3.95
2018-11-21T14:02:22.319Z,3.95
2018-11-21T14:04:55.528Z,3.91
2018-11-21T14:07:26.819Z,3.91
2018-11-21T14:09:56.813Z,3.75
2018-11-21T14:12:26.847Z,3.86
2018-11-21T14:14:56.869Z,3.86
2018-11-21T14:17:27.739Z,3.92
2018-11-21T14:19:57.037Z,3.92
2018-11-21T14:22:27.096Z,3.90
2018-11-21T14:24:57.107Z,3.71
2018-11-21T14:27:27.157Z,3.68
2018-11-21T14:29:57.143Z,3.68
2018-11-21T14:32:27.124Z,3.71
2018-11-21T14:34:57.545Z,3.70
2018-11-21T14:37:27.647Z,3.70
2018-11-21T14:39:58.230Z,3.68
2018-11-21T14:42:28.221Z,3.70
2018-11-21T14:45:01.259Z,3.75
2018-11-21T14:47:31.264Z,3.75
2018-11-21T14:50:02.789Z,3.81
2018-11-21T14:52:32.808Z,3.67
2018-11-21T14:55:02.968Z,3.46
2018-11-21T14:57:32.971Z,3.46
2018-11-21T15:00:02.997Z,3.41
2018-11-21T15:02:33.026Z,3.41
2018-11-21T15:05:03.029Z,3.29
2018-11-21T15:07:33.084Z,3.44
2018-11-21T15:10:03.181Z,3.32
2018-11-21T15:12:33.157Z,3.23
2018-11-21T15:15:03.240Z,3.23
2018-11-21T15:17:33.309Z,3.29
2018-11-21T15:20:04.759Z,3.30
2018-11-21T15:22:35.854Z,3.32
2018-11-21T15:25:05.030Z,3.18
2018-11-21T15:27:35.357Z,3.10
2018-11-21T15:30:07.793Z,3.05
2018-11-21T15:32:37.821Z,3.05
2018-11-21T15:35:08.270Z,3.11
2018-11-21T15:37:38.559Z,3.09
2018-11-21T15:40:12.826Z,3.12
2018-11-21T15:42:43.020Z,3.16
2018-11-21T15:45:15.354Z,3.18
2018-11-21T15:47:46.130Z,3.15
2018-11-21T15:50:17.188Z,3.13
2018-11-21T15:52:52.771Z,3.03
2018-11-21T15:55:18.175Z,3.05
2018-11-21T15:57:49.161Z,1.53
2018-11-21T16:00:21.583Z,2.92
2018-11-21T16:02:53.042Z,2.92
2018-11-21T16:05:23.124Z,2.89
2018-11-21T16:07:53.220Z,2.96
2018-11-21T16:10:25.306Z,2.97
2018-11-21T16:12:55.407Z,2.93
2018-11-21T16:15:30.946Z,2.85
2018-11-21T16:17:57.258Z,3.01
2018-11-21T16:20:27.380Z,3.12
2018-11-21T16:22:57.464Z,3.38
2018-11-21T16:25:27.498Z,3.24
2018-11-21T16:27:57.612Z,3.10
2018-11-21T16:30:27.940Z,3.10
2018-11-21T16:32:57.975Z,3.05
2018-11-21T16:35:27.998Z,3.03
2018-11-21T16:37:58.069Z,3.04
2018-11-21T16:40:30.104Z,3.10
2018-11-21T16:43:00.727Z,2.96
2018-11-21T16:45:32.514Z,3.00
2018-11-21T16:48:02.672Z,2.97
2018-11-21T16:50:32.687Z,3.01
2018-11-21T16:53:02.738Z,3.01
2018-11-21T16:55:33.131Z,3.01
2018-11-21T16:58:03.949Z,3.03
2018-11-21T17:00:34.098Z,3.02
2018-11-21T17:03:04.930Z,2.91
2018-11-21T17:05:34.985Z,2.91
2018-11-21T17:08:04.970Z,2.90
2018-11-21T17:10:35.445Z,2.88
2018-11-21T17:13:05.418Z,2.79
2018-11-21T17:15:36.019Z,2.79
2018-11-21T17:18:06.462Z,2.78
2018-11-21T17:20:43.954Z,2.78
2018-11-21T17:23:14.022Z,2.74
2018-11-21T17:25:44.482Z,2.70
2018-11-21T17:28:14.581Z,2.75
2018-11-21T17:30:44.627Z,2.67
2018-11-21T17:33:14.601Z,2.67
2018-11-21T17:35:44.645Z,2.60
2018-11-21T17:38:14.620Z,2.60
2018-11-21T17:40:45.401Z,2.61
2018-11-21T17:43:15.608Z,2.64
2018-11-21T17:45:45.837Z,2.69
2018-11-21T17:48:15.904Z,2.63
2018-11-21T17:50:45.925Z,2.55
2018-11-21T17:53:16.005Z,2.64
2018-11-21T17:55:46.062Z,2.65
2018-11-21T17:58:18.885Z,2.66
2018-11-21T18:00:48.995Z,2.61
2018-11-21T18:03:18.987Z,2.61
2018-11-21T18:05:50.000Z,2.61
2018-11-21T18:08:20.046Z,2.64
2018-11-21T18:10:50.026Z,2.65
2018-11-21T18:13:20.100Z,2.57
2018-11-21T18:15:50.114Z,2.56
2018-11-21T18:18:20.224Z,2.53
2018-11-21T18:20:50.271Z,2.39
2018-11-21T18:23:20.340Z,2.34
2018-11-21T18:25:50.437Z,2.37
2018-11-21T18:28:20.445Z,2.30
2018-11-21T18:30:50.488Z,2.31
2018-11-21T18:33:21.700Z,2.32
2018-11-21T18:35:51.632Z,2.32
2018-11-21T18:38:21.800Z,2.28
2018-11-21T18:40:51.892Z,2.23
2018-11-21T18:43:21.968Z,2.31
2018-11-21T18:45:55.607Z,2.32
2018-11-21T18:48:25.591Z,2.33
2018-11-21T18:50:55.666Z,2.32
2018-11-21T18:53:25.680Z,2.27
2018-11-21T18:56:17.753Z,2.25
2018-11-21T18:59:04.292Z,2.24
2018-11-21T19:01:34.403Z,2.27
2018-11-21T19:04:04.862Z,2.16
2018-11-21T19:06:34.897Z,2.11
2018-11-21T19:09:06.839Z,2.15
2018-11-21T19:11:37.042Z,2.15
2018-11-21T19:14:07.812Z,2.13
2018-11-21T19:16:38.194Z,2.11
2018-11-21T19:19:08.937Z,2.15
2018-11-21T19:21:38.995Z,2.13
2018-11-21T19:24:09.373Z,2.15
2018-11-21T19:26:39.452Z,2.13
2018-11-21T19:29:09.810Z,2.12
2018-11-21T19:31:39.853Z,2.09
2018-11-21T19:34:10.005Z,2.09
2018-11-21T19:36:40.143Z,2.14
2018-11-21T19:39:13.366Z,2.15
2018-11-21T19:41:46.580Z,1.64
2018-11-21T19:44:16.832Z,2.05
2018-11-21T19:46:48.028Z,2.03
2018-11-21T19:49:18.094Z,2.00
2018-11-21T19:51:48.127Z,2.02
2018-11-21T19:54:18.343Z,2.01
2018-11-21T19:56:48.407Z,1.99
2018-11-21T19:59:18.445Z,2.04
2018-11-21T20:01:48.575Z,2.05
2018-11-21T20:04:18.708Z,2.13
2018-11-21T20:06:48.761Z,2.16
2018-11-21T20:09:18.762Z,2.12
2018-11-21T20:11:48.742Z,2.25
2018-11-21T20:14:18.833Z,2.18
2018-11-21T20:16:48.854Z,2.11
2018-11-21T20:19:18.878Z,2.09
2018-11-21T20:21:48.893Z,2.04
2018-11-21T20:24:18.970Z,1.99
2018-11-21T20:26:48.977Z,2.02
2018-11-21T20:29:19.115Z,2.05
2018-11-21T20:31:49.200Z,2.08
2018-11-21T20:34:19.187Z,2.04
2018-11-21T20:36:49.401Z,2.00
2018-11-21T20:39:19.517Z,2.03
2018-11-21T20:41:49.670Z,2.02
2018-11-21T20:44:19.715Z,2.09
2018-11-21T20:46:49.714Z,2.07
2018-11-21T20:49:19.913Z,2.00
2018-11-21T20:51:49.973Z,2.00
2018-11-21T20:54:20.011Z,2.08
2018-11-21T20:56:50.087Z,1.98
2018-11-21T20:59:20.206Z,1.95
2018-11-21T21:01:50.182Z,1.98
2018-11-21T21:04:20.199Z,2.07
2018-11-21T21:06:50.167Z,1.91
2018-11-21T21:09:20.266Z,2.04
2018-11-21T21:11:50.565Z,2.01
2018-11-21T21:14:20.740Z,1.97
2018-11-21T21:16:50.801Z,1.95
2018-11-21T21:19:23.403Z,2.08
2018-11-21T21:21:53.391Z,2.12
2018-11-21T21:24:23.415Z,2.16
2018-11-21T21:26:53.484Z,2.23
2018-11-21T21:29:23.470Z,2.26
2018-11-21T21:31:53.518Z,2.25
2018-11-21T21:34:26.230Z,2.19
2018-11-21T21:36:56.338Z,2.27
2018-11-21T21:39:26.312Z,2.22
2018-11-21T21:41:56.343Z,2.17
2018-11-21T21:44:26.465Z,2.20
2018-11-21T21:46:56.550Z,2.27
2018-11-21T21:49:26.570Z,2.31
2018-11-21T21:51:56.578Z,2.25
2018-11-21T21:54:26.570Z,2.20
2018-11-21T21:56:56.614Z,2.13
2018-11-21T21:59:26.654Z,2.20
2018-11-21T22:01:56.643Z,2.16
2018-11-21T22:04:26.730Z,2.15
2018-11-21T22:06:57.132Z,1.40
2018-11-21T22:09:27.214Z,2.49
2018-11-21T22:11:57.187Z,2.40
2018-11-21T22:14:27.215Z,2.41
2018-11-21T22:16:57.236Z,2.40
2018-11-21T22:19:30.871Z,2.48
2018-11-21T22:22:00.855Z,2.53
2018-11-21T22:24:30.853Z,2.48
2018-11-21T22:27:00.896Z,2.36
2018-11-21T22:29:30.945Z,2.26
2018-11-21T22:32:01.042Z,2.25
2018-11-21T22:34:31.554Z,2.31
2018-11-21T22:37:01.562Z,2.26
2018-11-21T22:39:31.486Z,2.29
2018-11-21T22:42:01.858Z,2.35
2018-11-21T22:44:31.802Z,2.39
2018-11-21T22:47:02.005Z,2.27
2018-11-21T22:49:31.937Z,2.26
2018-11-21T22:52:04.749Z,2.26
2018-11-21T22:54:34.784Z,2.36
2018-11-21T22:57:04.738Z,2.30
2018-11-21T22:59:34.703Z,2.26
2018-11-21T23:02:04.706Z,2.26
2018-11-21T23:04:34.690Z,2.17
2018-11-21T23:07:04.737Z,2.20
2018-11-21T23:09:34.674Z,2.25
2018-11-21T23:12:04.642Z,2.24
2018-11-21T23:14:34.559Z,2.34
2018-11-21T23:17:04.695Z,2.33
2018-11-21T23:19:34.747Z,2.33
2018-11-21T23:22:04.719Z,2.29
2018-11-21T23:24:34.768Z,2.14
2018-11-21T23:27:04.789Z,2.20
2018-11-21T23:29:34.762Z,2.31
2018-11-21T23:32:04.744Z,2.26
2018-11-21T23:34:34.745Z,2.27
2018-11-21T23:37:04.752Z,2.15
2018-11-21T23:39:34.733Z,2.17
2018-11-21T23:42:04.660Z,2.12
2018-11-21T23:44:34.613Z,2.05
2018-11-21T23:47:04.567Z,2.10
2018-11-21T23:49:34.521Z,2.09
2018-11-21T23:52:04.555Z,2.11
2018-11-21T23:54:34.574Z,2.04
2018-11-21T23:57:16.005Z,2.05
2018-11-21T23:59:34.509Z,2.15
